createdAt,value
2022-09-02T00:01:40.782Z,3.10
2022-09-02T00:04:10.601Z,3.10
2022-09-02T00:06:39.553Z,3.30
2022-09-02T00:09:08.880Z,3.28
2022-09-02T00:11:38.821Z,3.20
2022-09-02T00:14:08.845Z,3.50
2022-09-02T00:16:37.375Z,3.88
2022-09-02T00:19:07.233Z,3.50
2022-09-02T00:21:36.734Z,3.55
2022-09-02T00:24:06.533Z,3.55
2022-09-02T00:26:35.558Z,3.67
2022-09-02T00:29:04.176Z,3.58
2022-09-02T00:31:33.788Z,3.70
2022-09-02T00:34:02.422Z,4.00
2022-09-02T00:36:32.425Z,3.88
2022-09-02T00:39:00.937Z,4.00
2022-09-02T00:41:30.366Z,4.10
2022-09-02T00:43:59.835Z,3.90
2022-09-02T00:46:30.443Z,4.30
2022-09-02T00:49:00.850Z,3.90
2022-09-02T00:51:32.359Z,3.90
2022-09-02T00:54:03.105Z,3.80
2022-09-02T00:56:33.775Z,4.07
2022-09-02T00:59:02.814Z,4.10
2022-09-02T01:01:31.432Z,3.58
2022-09-02T01:04:00.676Z,3.85
2022-09-02T01:06:33.072Z,3.90
2022-09-02T01:09:05.359Z,3.90
2022-09-02T01:11:39.045Z,3.80
2022-09-02T01:14:10.143Z,3.63
2022-09-02T01:16:42.874Z,3.55
2022-09-02T01:19:14.767Z,3.95
2022-09-02T01:21:48.487Z,3.97
2022-09-02T01:24:17.674Z,4.10
2022-09-02T01:26:46.839Z,4.55
2022-09-02T01:29:16.475Z,4.55
2022-09-02T01:31:45.067Z,4.25
2022-09-02T01:34:13.842Z,4.45
2022-09-02T01:36:42.797Z,3.92
2022-09-02T01:39:13.388Z,4.10
2022-09-02T01:41:42.205Z,3.90
2022-09-02T01:44:12.285Z,4.00
2022-09-02T01:46:40.939Z,4.00
2022-09-02T01:49:09.509Z,4.25
2022-09-02T01:51:38.701Z,4.10
2022-09-02T01:54:07.866Z,4.32
2022-09-02T01:56:37.727Z,3.97
2022-09-02T01:59:07.895Z,4.20
2022-09-02T02:01:37.299Z,4.20
2022-09-02T02:04:10.240Z,4.40
2022-09-02T02:06:42.921Z,4.10
2022-09-02T02:09:11.423Z,4.10
2022-09-02T02:11:42.138Z,4.05
2022-09-02T02:14:10.724Z,4.43
2022-09-02T02:16:39.357Z,4.20
2022-09-02T02:19:08.805Z,4.25
2022-09-02T02:21:37.335Z,4.00
2022-09-02T02:24:07.995Z,4.03
2022-09-02T02:26:36.812Z,3.92
2022-09-02T02:29:06.743Z,3.40
2022-09-02T02:31:35.591Z,3.95
2022-09-02T02:34:04.371Z,4.07
2022-09-02T02:36:32.920Z,3.83
2022-09-02T02:39:02.218Z,4.18
2022-09-02T02:41:31.818Z,3.90
2022-09-02T02:44:00.599Z,4.25
2022-09-02T02:46:31.541Z,4.30
2022-09-02T02:49:01.630Z,4.03
2022-09-02T02:51:30.521Z,4.07
2022-09-02T02:53:59.162Z,4.18
2022-09-02T02:56:28.509Z,4.10
2022-09-02T02:58:57.039Z,3.70
2022-09-02T03:01:25.848Z,3.85
2022-09-02T03:03:56.150Z,3.88
2022-09-02T03:06:26.715Z,3.88
2022-09-02T03:08:56.555Z,3.15
2022-09-02T03:11:26.693Z,3.45
2022-09-02T03:13:55.199Z,3.50
2022-09-02T03:16:24.125Z,3.83
2022-09-02T03:18:52.966Z,3.60
2022-09-02T03:21:22.915Z,3.90
2022-09-02T03:23:51.540Z,3.95
2022-09-02T03:26:20.911Z,4.25
2022-09-02T03:28:49.430Z,3.95
2022-09-02T03:31:19.558Z,3.92
2022-09-02T03:33:48.239Z,3.85
2022-09-02T03:36:28.787Z,4.00
2022-09-02T03:38:57.634Z,4.35
2022-09-02T03:41:26.729Z,3.50
2022-09-02T03:43:55.323Z,4.00
2022-09-02T03:46:23.866Z,4.05
2022-09-02T03:48:52.670Z,3.47
2022-09-02T03:51:21.218Z,3.80
2022-09-02T03:53:51.096Z,3.67
2022-09-02T03:56:19.797Z,3.60
2022-09-02T03:58:51.011Z,3.47
2022-09-02T04:01:22.836Z,4.10
2022-09-02T04:03:52.032Z,3.70
2022-09-02T04:06:22.044Z,3.83
2022-09-02T04:08:52.297Z,3.88
2022-09-02T04:11:21.953Z,4.18
2022-09-02T04:13:51.581Z,4.25
2022-09-02T04:16:21.409Z,4.00
2022-09-02T04:18:49.951Z,3.70
2022-09-02T04:21:19.669Z,3.65
2022-09-02T04:23:48.439Z,4.15
2022-09-02T04:26:19.255Z,4.13
2022-09-02T04:28:47.794Z,3.92
2022-09-02T04:31:18.058Z,3.78
2022-09-02T04:33:46.855Z,3.70
2022-09-02T04:36:16.285Z,4.25
2022-09-02T04:38:47.194Z,3.90
2022-09-02T04:41:17.243Z,3.65
2022-09-02T04:43:47.152Z,3.75
2022-09-02T04:46:17.200Z,3.88
2022-09-02T04:48:46.011Z,3.67
2022-09-02T04:51:16.610Z,4.57
2022-09-02T04:53:45.848Z,4.00
2022-09-02T04:56:15.835Z,4.10
2022-09-02T04:58:45.117Z,3.80
2022-09-02T05:01:16.767Z,3.75
2022-09-02T05:03:46.294Z,3.67
2022-09-02T05:06:17.042Z,3.80
2022-09-02T05:08:48.162Z,3.90
2022-09-02T05:11:18.459Z,4.00
2022-09-02T05:13:51.599Z,4.40
2022-09-02T05:16:22.422Z,3.88
2022-09-02T05:18:51.255Z,3.80
2022-09-02T05:21:19.897Z,3.80
2022-09-02T05:23:48.452Z,3.90
2022-09-02T05:26:17.799Z,4.07
2022-09-02T05:28:46.362Z,3.90
2022-09-02T05:31:15.849Z,4.07
2022-09-02T05:33:46.044Z,4.00
2022-09-02T05:36:15.330Z,4.07
2022-09-02T05:38:44.940Z,3.78
2022-09-02T05:41:14.681Z,3.65
2022-09-02T05:43:44.614Z,3.88
2022-09-02T05:46:17.577Z,3.72
2022-09-02T05:49:05.790Z,3.88
2022-09-02T05:51:35.775Z,4.18
2022-09-02T05:54:04.198Z,3.97
2022-09-02T05:56:32.705Z,3.63
2022-09-02T05:59:01.873Z,4.07
2022-09-02T06:01:30.746Z,3.90
2022-09-02T06:04:02.381Z,4.00
2022-09-02T06:06:31.476Z,4.20
2022-09-02T06:09:00.649Z,3.80
2022-09-02T06:11:30.208Z,3.45
2022-09-02T06:13:59.490Z,3.50
2022-09-02T06:16:28.031Z,3.40
2022-09-02T06:18:56.602Z,3.47
2022-09-02T06:21:26.479Z,3.20
2022-09-02T06:23:55.002Z,3.60
2022-09-02T06:26:23.754Z,3.00
2022-09-02T06:28:52.232Z,3.38
2022-09-02T06:31:21.404Z,3.10
2022-09-02T06:33:51.010Z,3.05
2022-09-02T06:36:19.659Z,3.00
2022-09-02T06:38:51.831Z,2.65
2022-09-02T06:41:23.225Z,2.90
2022-09-02T06:43:51.883Z,2.63
2022-09-02T06:46:24.668Z,2.60
2022-09-02T06:48:53.342Z,2.80
2022-09-02T06:51:22.807Z,2.97
2022-09-02T06:53:52.912Z,2.88
2022-09-02T06:56:21.906Z,2.70
2022-09-02T06:58:50.447Z,3.25
2022-09-02T07:01:22.351Z,3.03
2022-09-02T07:04:08.529Z,2.70
2022-09-02T07:06:37.639Z,2.55
2022-09-02T07:09:08.895Z,2.67
2022-09-02T07:11:37.477Z,3.05
2022-09-02T07:14:06.457Z,2.90
2022-09-02T07:16:36.369Z,2.63
2022-09-02T07:19:13.170Z,2.25
2022-09-02T07:21:43.966Z,2.83
2022-09-02T07:24:17.800Z,2.72
2022-09-02T07:26:46.687Z,2.65
2022-09-02T07:29:15.269Z,2.70
2022-09-02T07:31:46.045Z,2.67
2022-09-02T07:34:15.055Z,2.50
2022-09-02T07:36:45.631Z,2.70
2022-09-02T07:39:17.230Z,2.70
2022-09-02T07:41:46.942Z,2.50
2022-09-02T07:44:15.972Z,2.60
2022-09-02T07:46:47.813Z,2.50
2022-09-02T07:49:18.901Z,2.50
2022-09-02T07:51:51.394Z,2.28
2022-09-02T07:54:22.540Z,2.63
2022-09-02T07:56:51.134Z,2.53
2022-09-02T07:59:20.138Z,2.80
2022-09-02T08:01:48.930Z,2.70
2022-09-02T08:04:18.746Z,2.85
2022-09-02T08:06:48.267Z,2.60
2022-09-02T08:09:16.723Z,2.55
2022-09-02T08:11:47.971Z,2.40
2022-09-02T08:14:18.189Z,2.70
2022-09-02T08:16:47.251Z,2.58
2022-09-02T08:19:15.998Z,2.47
2022-09-02T08:21:44.545Z,2.50
2022-09-02T08:24:15.243Z,2.20
2022-09-02T08:26:43.725Z,2.40
2022-09-02T08:29:16.222Z,2.30
2022-09-02T08:31:44.806Z,2.42
2022-09-02T08:34:17.088Z,2.30
2022-09-02T08:36:56.076Z,2.45
2022-09-02T08:39:25.698Z,2.42
2022-09-02T08:41:56.236Z,2.33
2022-09-02T08:44:28.526Z,2.60
2022-09-02T08:47:00.370Z,2.25
2022-09-02T08:49:32.208Z,2.22
2022-09-02T08:52:02.751Z,2.40
2022-09-02T08:54:33.399Z,2.25
2022-09-02T08:57:02.026Z,2.20
2022-09-02T08:59:32.555Z,2.53
2022-09-02T09:02:11.527Z,1.95
2022-09-02T09:04:55.607Z,2.28
2022-09-02T09:07:30.915Z,2.10
2022-09-02T09:10:06.704Z,2.30
2022-09-02T09:12:42.601Z,2.50
2022-09-02T09:15:17.694Z,2.55
2022-09-02T09:17:47.212Z,2.45
2022-09-02T09:20:20.544Z,1.88
2022-09-02T09:22:50.113Z,2.20
2022-09-02T09:25:19.842Z,2.25
2022-09-02T09:27:48.494Z,2.30
2022-09-02T09:30:18.572Z,2.17
2022-09-02T09:32:49.624Z,2.33
2022-09-02T09:35:18.975Z,2.40
2022-09-02T09:37:50.129Z,2.40
2022-09-02T09:40:26.660Z,2.20
2022-09-02T09:42:57.286Z,2.17
2022-09-02T09:45:32.451Z,2.30
2022-09-02T09:48:18.675Z,2.20
2022-09-02T09:50:47.778Z,2.50
2022-09-02T09:53:17.328Z,2.20
2022-09-02T09:55:54.020Z,2.35
2022-09-02T09:58:23.481Z,2.40
2022-09-02T10:00:56.440Z,2.47
2022-09-02T10:03:27.143Z,2.40
2022-09-02T10:06:18.563Z,2.20
2022-09-02T10:08:52.997Z,2.53
2022-09-02T10:11:26.659Z,2.60
2022-09-02T10:13:59.219Z,2.28
2022-09-02T10:16:36.786Z,2.65
2022-09-02T10:19:13.713Z,2.35
2022-09-02T10:21:51.002Z,2.58
2022-09-02T10:24:28.345Z,2.20
2022-09-02T10:27:00.562Z,2.40
2022-09-02T10:29:49.649Z,2.00
2022-09-02T10:32:25.110Z,2.40
2022-09-02T10:35:00.111Z,2.30
2022-09-02T10:37:33.662Z,2.22
2022-09-02T10:40:09.841Z,2.40
2022-09-02T10:42:45.750Z,2.50
2022-09-02T10:45:18.238Z,2.33
2022-09-02T10:47:54.938Z,2.40
2022-09-02T10:50:27.869Z,2.30
2022-09-02T10:53:05.881Z,2.42
2022-09-02T10:55:41.751Z,2.35
2022-09-02T10:58:13.043Z,2.63
2022-09-02T11:00:43.493Z,2.35
2022-09-02T11:03:15.858Z,2.13
2022-09-02T11:05:48.148Z,2.30
2022-09-02T11:08:19.127Z,2.22
2022-09-02T11:10:52.403Z,2.50
2022-09-02T11:13:24.798Z,2.20
2022-09-02T11:15:54.985Z,2.25
2022-09-02T11:18:30.307Z,2.35
2022-09-02T11:21:03.234Z,2.20
2022-09-02T11:23:37.196Z,2.15
2022-09-02T11:26:09.123Z,2.40
2022-09-02T11:28:43.760Z,2.33
2022-09-02T11:31:16.803Z,2.60
2022-09-02T11:33:53.184Z,2.38
2022-09-02T11:36:22.053Z,2.20
2022-09-02T11:38:56.511Z,2.40
2022-09-02T11:41:34.109Z,2.42
2022-09-02T11:44:14.775Z,2.90
2022-09-02T11:47:04.268Z,2.80
2022-09-02T11:49:43.431Z,2.72
2022-09-02T11:55:02.788Z,3.63
2022-09-02T11:57:33.635Z,3.40
2022-09-02T12:00:27.106Z,4.10
2022-09-02T12:03:38.823Z,3.00
2022-09-02T12:06:14.391Z,3.83
2022-09-02T12:09:05.056Z,4.57
2022-09-02T12:11:41.928Z,3.00
2022-09-02T12:14:13.819Z,3.60
2022-09-02T12:16:45.010Z,5.35
2022-09-02T12:19:29.146Z,4.40
2022-09-02T12:22:38.926Z,5.78
2022-09-02T12:25:44.163Z,7.93
2022-09-02T12:28:25.166Z,6.35
2022-09-02T12:31:15.762Z,5.90
2022-09-02T12:33:45.839Z,9.40
2022-09-02T12:36:47.824Z,6.63
2022-09-02T12:39:55.536Z,6.88
2022-09-02T12:42:30.127Z,14.43
2022-09-02T12:45:08.439Z,9.95
2022-09-02T12:47:50.832Z,8.50
2022-09-02T12:50:26.707Z,11.93
2022-09-02T12:53:24.549Z,6.40
2022-09-02T12:55:58.989Z,7.55
2022-09-02T12:58:29.810Z,8.02
2022-09-02T13:01:05.880Z,6.28
2022-09-02T13:03:49.349Z,11.35
2022-09-02T13:06:28.577Z,6.68
2022-09-02T13:09:26.947Z,7.65
2022-09-02T13:12:27.677Z,11.88
2022-09-02T13:15:03.560Z,6.45
2022-09-02T13:17:48.575Z,7.38
2022-09-02T13:20:56.209Z,7.90
2022-09-02T13:23:58.576Z,3.65
2022-09-02T13:26:49.708Z,6.32
2022-09-02T13:29:51.634Z,4.80
2022-09-02T13:32:25.678Z,5.25
2022-09-02T13:34:57.880Z,7.45
2022-09-02T13:37:30.685Z,4.75
2022-09-02T13:39:59.876Z,5.68
2022-09-02T13:42:31.982Z,6.13
2022-09-02T13:45:14.062Z,5.68
2022-09-02T13:47:49.743Z,3.90
2022-09-02T13:50:22.477Z,4.03
2022-09-02T13:55:51.047Z,5.07
2022-09-02T13:58:39.520Z,4.80
2022-09-02T14:01:23.262Z,7.57
2022-09-02T14:03:55.059Z,6.60
2022-09-02T14:06:26.911Z,7.55
2022-09-02T14:08:59.844Z,10.10
2022-09-02T14:11:29.943Z,6.90
2022-09-02T14:13:58.800Z,6.20
2022-09-02T14:16:33.687Z,13.38
2022-09-02T14:19:08.348Z,7.53
2022-09-02T14:21:37.312Z,7.65
2022-09-02T14:24:06.810Z,10.45
2022-09-02T14:26:42.228Z,10.02
2022-09-02T14:29:23.736Z,6.50
2022-09-02T14:32:14.007Z,5.55
2022-09-02T14:34:44.971Z,7.70
2022-09-02T14:37:23.885Z,5.25
2022-09-02T14:40:11.770Z,5.78
2022-09-02T14:42:49.654Z,6.95
2022-09-02T14:45:27.956Z,4.32
2022-09-02T14:47:59.107Z,4.00
2022-09-02T14:50:31.127Z,6.65
2022-09-02T14:53:04.906Z,4.90
2022-09-02T14:55:50.043Z,5.28
2022-09-02T14:58:24.743Z,7.70
2022-09-02T15:00:57.112Z,4.93
2022-09-02T15:03:25.707Z,4.43
2022-09-02T15:05:55.431Z,5.55
2022-09-02T15:08:24.054Z,6.97
2022-09-02T15:10:57.012Z,10.35
2022-09-02T15:13:30.310Z,7.10
2022-09-02T15:15:59.563Z,7.28
2022-09-02T15:18:27.970Z,5.50
2022-09-02T15:21:00.706Z,6.65
2022-09-02T15:23:32.550Z,3.90
2022-09-02T15:26:04.934Z,4.65
2022-09-02T15:28:33.189Z,6.07
2022-09-02T15:31:02.637Z,4.47
2022-09-02T15:33:31.843Z,3.60
2022-09-02T15:36:14.682Z,6.15
2022-09-02T15:38:42.978Z,4.15
2022-09-02T15:41:15.877Z,4.20
2022-09-02T15:43:44.967Z,4.88
2022-09-02T15:46:21.912Z,4.47
2022-09-02T15:48:50.773Z,4.20
2022-09-02T15:51:22.646Z,5.30
2022-09-02T15:53:56.766Z,4.18
2022-09-02T15:56:26.539Z,5.90
2022-09-02T15:58:59.115Z,4.30
2022-09-02T16:01:28.708Z,4.30
2022-09-02T16:04:01.864Z,5.15
2022-09-02T16:06:32.151Z,5.10
2022-09-02T16:09:01.219Z,4.60
2022-09-02T16:11:29.781Z,4.95
2022-09-02T16:13:58.799Z,4.50
2022-09-02T16:16:36.482Z,4.53
2022-09-02T16:19:07.208Z,4.88
2022-09-02T16:21:39.186Z,5.78
2022-09-02T16:24:08.230Z,4.43
2022-09-02T16:26:38.980Z,4.00
2022-09-02T16:29:09.802Z,4.85
2022-09-02T16:31:39.656Z,3.80
2022-09-02T16:34:09.702Z,3.30
2022-09-02T16:36:41.379Z,3.67
2022-09-02T16:39:10.635Z,3.40
2022-09-02T16:41:42.174Z,2.90
2022-09-02T16:44:14.028Z,3.47
2022-09-02T16:46:42.230Z,3.17
2022-09-02T16:49:11.760Z,3.30
2022-09-02T16:51:42.067Z,3.10
2022-09-02T16:54:17.565Z,3.15
2022-09-02T16:56:49.953Z,2.60
2022-09-02T16:59:19.255Z,2.95
2022-09-02T17:01:47.897Z,2.92
2022-09-02T17:04:16.602Z,3.13
2022-09-02T17:06:46.162Z,3.30
2022-09-02T17:09:14.383Z,3.15
2022-09-02T17:11:45.314Z,3.10
2022-09-02T17:14:16.531Z,3.22
2022-09-02T17:16:47.502Z,3.20
2022-09-02T17:19:21.570Z,2.72
2022-09-02T17:21:52.526Z,2.92
2022-09-02T17:24:23.423Z,3.25
2022-09-02T17:26:55.833Z,2.97
2022-09-02T17:29:48.196Z,3.00
2022-09-02T17:32:15.325Z,3.38
2022-09-02T17:34:43.524Z,3.20
2022-09-02T17:37:13.611Z,4.78
2022-09-02T17:39:41.933Z,4.28
2022-09-02T17:42:09.172Z,4.10
2022-09-02T17:44:40.237Z,3.80
2022-09-02T17:47:10.932Z,3.88
2022-09-02T17:49:42.271Z,4.40
2022-09-02T17:52:12.828Z,4.45
2022-09-02T17:54:42.125Z,4.65
2022-09-02T17:57:32.773Z,4.13
2022-09-02T18:00:09.174Z,3.88
2022-09-02T18:03:24.422Z,3.40
2022-09-02T18:06:10.451Z,3.83
2022-09-02T18:08:49.459Z,4.40
2022-09-02T18:11:17.995Z,12.00
2022-09-02T18:13:56.318Z,13.10
2022-09-02T18:16:37.084Z,13.40
2022-09-02T18:19:28.776Z,12.75
2022-09-02T18:22:11.675Z,11.60
2022-09-02T18:25:00.088Z,8.95
2022-09-02T18:27:40.386Z,7.32
2022-09-02T18:30:11.764Z,6.78
2022-09-02T18:33:05.166Z,6.25
2022-09-02T18:35:45.064Z,6.47
2022-09-02T18:38:28.123Z,11.98
2022-09-02T18:41:14.699Z,14.40
2022-09-02T18:43:58.751Z,14.38
2022-09-02T18:46:29.477Z,13.15
2022-09-02T18:49:00.494Z,12.40
2022-09-02T18:51:36.209Z,10.48
2022-09-02T18:54:12.305Z,8.98
2022-09-02T18:56:49.890Z,8.20
2022-09-02T18:59:28.609Z,7.00
2022-09-02T19:02:02.466Z,5.95
2022-09-02T19:04:34.303Z,5.45
2022-09-02T19:07:16.761Z,5.53
2022-09-02T19:09:45.257Z,7.88
2022-09-02T19:12:15.403Z,9.57
2022-09-02T19:14:43.683Z,10.70
2022-09-02T19:17:12.664Z,13.90
2022-09-02T19:19:41.111Z,21.48
2022-09-02T19:22:11.687Z,17.45
2022-09-02T19:24:44.114Z,16.63
2022-09-02T19:27:14.589Z,14.35
2022-09-02T19:29:45.967Z,13.27
2022-09-02T19:32:15.202Z,12.88
2022-09-02T19:34:44.975Z,10.68
2022-09-02T19:37:14.117Z,9.50
2022-09-02T19:39:42.746Z,8.30
2022-09-02T19:42:11.290Z,7.90
2022-09-02T19:44:40.121Z,7.20
2022-09-02T19:48:02.641Z,6.20
2022-09-02T19:50:00.610Z,5.63
2022-09-02T19:52:29.091Z,5.55
2022-09-02T19:54:57.644Z,4.93
2022-09-02T19:57:27.744Z,4.80
2022-09-02T19:59:56.649Z,4.25
2022-09-02T20:02:26.525Z,4.35
2022-09-02T20:04:56.303Z,4.35
2022-09-02T20:07:25.727Z,4.25
2022-09-02T20:09:54.498Z,4.40
2022-09-02T20:12:23.339Z,4.13
2022-09-02T20:14:51.888Z,3.83
2022-09-02T20:17:22.211Z,3.47
2022-09-02T20:20:01.413Z,3.55
2022-09-02T20:22:30.902Z,3.55
2022-09-02T20:24:59.919Z,3.28
2022-09-02T20:27:35.189Z,3.20
2022-09-02T20:30:09.247Z,3.33
2022-09-02T20:32:53.127Z,3.35
2022-09-02T20:35:28.985Z,3.25
2022-09-02T20:38:07.891Z,3.60
2022-09-02T20:40:45.842Z,3.20
2022-09-02T20:43:27.228Z,3.53
2022-09-02T20:45:59.494Z,3.38
2022-09-02T20:48:41.500Z,3.72
2022-09-02T20:51:17.289Z,3.50
2022-09-02T20:54:07.771Z,3.17
2022-09-02T20:56:42.737Z,3.05
2022-09-02T20:59:22.411Z,2.90
2022-09-02T21:01:51.456Z,3.22
2022-09-02T21:04:32.095Z,3.17
2022-09-02T21:07:06.014Z,3.13
2022-09-02T21:09:40.912Z,3.20
2022-09-02T21:12:24.329Z,3.10
2022-09-02T21:14:58.570Z,3.33
2022-09-02T21:17:36.708Z,3.10
2022-09-02T21:20:17.812Z,3.22
2022-09-02T21:22:52.704Z,3.00
2022-09-02T21:25:26.753Z,3.20
2022-09-02T21:28:00.348Z,3.10
2022-09-02T21:30:34.885Z,3.97
2022-09-02T21:33:09.472Z,3.53
2022-09-02T21:35:41.935Z,3.30
2022-09-02T21:38:16.973Z,3.47
2022-09-02T21:41:03.401Z,3.35
2022-09-02T21:43:51.429Z,3.47
2022-09-02T21:46:32.319Z,3.58
2022-09-02T21:49:06.571Z,3.10
2022-09-02T21:51:38.075Z,3.03
2022-09-02T21:54:29.512Z,3.35
2022-09-02T21:57:15.470Z,3.28
2022-09-02T22:00:02.230Z,3.38
2022-09-02T22:02:39.456Z,3.45
2022-09-02T22:05:19.448Z,3.30
2022-09-02T22:07:55.541Z,3.45
2022-09-02T22:10:32.282Z,3.33
2022-09-02T22:13:03.536Z,3.10
2022-09-02T22:15:42.628Z,3.70
2022-09-02T22:18:20.486Z,3.60
2022-09-02T22:20:50.933Z,3.28
2022-09-02T22:23:26.314Z,3.30
2022-09-02T22:25:56.966Z,3.30
2022-09-02T22:28:32.567Z,3.40
2022-09-02T22:31:05.672Z,3.40
2022-09-02T22:33:35.922Z,3.38
2022-09-02T22:36:12.025Z,3.55
2022-09-02T22:38:47.107Z,3.33
2022-09-02T22:41:26.159Z,3.60
2022-09-02T22:43:56.890Z,3.30
2022-09-02T22:46:47.992Z,3.63
2022-09-02T22:49:43.622Z,4.07
2022-09-02T22:52:35.090Z,3.47
2022-09-02T22:55:03.878Z,3.60
2022-09-02T22:57:38.063Z,3.45
2022-09-02T23:00:09.339Z,3.63
2022-09-02T23:02:39.238Z,3.60
2022-09-02T23:05:34.594Z,3.63
2022-09-02T23:08:03.074Z,3.75
2022-09-02T23:10:31.572Z,3.50
2022-09-02T23:13:04.111Z,3.45
2022-09-02T23:15:36.939Z,3.55
2022-09-02T23:18:08.690Z,3.90
2022-09-02T23:20:46.414Z,3.33
2022-09-02T23:23:24.998Z,4.07
2022-09-02T23:26:09.692Z,3.45
2022-09-02T23:28:48.823Z,4.55
2022-09-02T23:31:22.086Z,3.58
2022-09-02T23:33:54.154Z,3.63
2022-09-02T23:36:32.992Z,3.78
2022-09-02T23:39:08.630Z,3.50
2022-09-02T23:41:38.871Z,3.50
2022-09-02T23:44:08.782Z,3.70
2022-09-02T23:46:42.278Z,3.55
2022-09-02T23:49:16.282Z,3.47
2022-09-02T23:51:51.557Z,3.50
2022-09-02T23:54:30.283Z,3.88
2022-09-02T23:57:02.780Z,3.42
2022-09-02T23:59:40.337Z,3.42
